createdAt,value
2018-09-01T00:00:59.898Z,77.36
2018-09-01T00:01:59.821Z,76.12
2018-09-01T00:02:59.745Z,74.60
2018-09-01T00:03:59.669Z,74.21
2018-09-01T00:04:59.593Z,74.50
2018-09-01T00:05:59.517Z,75.36
2018-09-01T00:06:59.440Z,76.03
2018-09-01T00:07:59.365Z,76.03
2018-09-01T00:08:59.289Z,74.21
2018-09-01T00:09:59.218Z,73.83
2018-09-01T00:10:59.138Z,73.26
2018-09-01T00:11:59.061Z,73.55
2018-09-01T00:12:58.987Z,74.12
2018-09-01T00:13:58.909Z,73.07
2018-09-01T00:14:58.834Z,72.41
2018-09-01T00:15:58.757Z,71.73
2018-09-01T00:16:58.681Z,71.32
2018-09-01T00:17:58.606Z,71.83
2018-09-01T00:18:58.538Z,71.64
2018-09-01T00:19:58.454Z,71.26
2018-09-01T00:20:58.378Z,70.21
2018-09-01T00:21:58.301Z,69.26
2018-09-01T00:22:58.225Z,68.37
2018-09-01T00:23:58.149Z,68.08
2018-09-01T00:24:58.078Z,68.27
2018-09-01T00:25:57.996Z,67.55
2018-09-01T00:26:57.921Z,67.80
2018-09-01T00:27:57.845Z,67.99
2018-09-01T00:28:57.768Z,67.80
2018-09-01T00:29:57.693Z,67.80
2018-09-01T00:30:57.618Z,68.69
2018-09-01T00:31:57.540Z,69.83
2018-09-01T00:32:57.462Z,70.18
2018-09-01T00:33:57.388Z,69.93
2018-09-01T00:34:57.316Z,69.07
2018-09-01T00:35:57.235Z,69.32
2018-09-01T00:36:57.159Z,69.23
2018-09-01T00:37:57.083Z,68.27
2018-09-01T00:38:57.007Z,67.22
2018-09-01T00:39:56.929Z,67.22
2018-09-01T00:40:56.853Z,67.51
2018-09-01T00:41:56.777Z,66.75
2018-09-01T00:42:56.701Z,67.61
2018-09-01T00:43:56.627Z,68.08
2018-09-01T00:44:56.547Z,68.30
2018-09-01T00:45:56.472Z,69.54
2018-09-01T00:46:56.396Z,69.07
2018-09-01T00:47:56.319Z,69.45
2018-09-01T00:48:56.243Z,70.37
2018-09-01T00:49:56.167Z,70.08
2018-09-01T00:50:56.092Z,69.13
2018-09-01T00:51:56.014Z,69.13
2018-09-01T00:52:55.939Z,69.04
2018-09-01T00:53:55.862Z,67.51
2018-09-01T00:54:55.786Z,68.08
2018-09-01T00:55:55.710Z,67.99
2018-09-01T00:56:55.633Z,67.70
2018-09-01T00:57:55.562Z,67.13
2018-09-01T00:58:55.481Z,67.32
2018-09-01T00:59:55.403Z,67.13
2018-09-01T01:00:55.327Z,67.41
2018-09-01T01:01:55.251Z,67.70
2018-09-01T01:02:55.174Z,68.27
2018-09-01T01:03:55.097Z,67.99
2018-09-01T01:04:55.020Z,68.18
2018-09-01T01:05:54.945Z,68.37
2018-09-01T01:06:54.870Z,69.23
2018-09-01T01:07:54.792Z,68.84
2018-09-01T01:08:54.716Z,67.99
2018-09-01T01:09:54.641Z,68.08
2018-09-01T01:10:54.565Z,68.65
2018-09-01T01:11:54.488Z,70.08
2018-09-01T01:12:54.410Z,71.22
2018-09-01T01:13:54.334Z,70.84
2018-09-01T01:14:54.260Z,69.23
2018-09-01T01:15:54.181Z,68.84
2018-09-01T01:16:54.105Z,69.13
2018-09-01T01:17:54.028Z,68.65
2018-09-01T01:18:53.953Z,66.94
2018-09-01T01:19:53.875Z,65.13
2018-09-01T01:20:53.799Z,67.32
2018-09-01T01:21:53.724Z,68.27
2018-09-01T01:22:53.647Z,69.29
2018-09-01T01:23:53.569Z,68.90
2018-09-01T01:24:53.493Z,68.05
2018-09-01T01:25:53.417Z,68.15
2018-09-01T01:26:53.339Z,67.00
2018-09-01T01:27:53.261Z,67.19
2018-09-01T01:28:53.187Z,67.29
2018-09-01T01:29:53.110Z,68.52
2018-09-01T01:30:53.035Z,70.72
2018-09-01T01:31:52.956Z,70.52
2018-09-01T01:32:52.880Z,69.29
2018-09-01T01:33:52.804Z,68.15
2018-09-01T01:34:52.727Z,67.19
2018-09-01T01:35:52.649Z,67.19
2018-09-01T01:36:52.577Z,65.86
2018-09-01T01:37:52.501Z,65.00
2018-09-01T01:38:52.420Z,64.72
2018-09-01T01:39:52.343Z,66.14
2018-09-01T01:40:52.266Z,66.24
2018-09-01T01:41:52.191Z,66.14
2018-09-01T01:42:52.115Z,66.62
2018-09-01T01:43:52.036Z,66.14
2018-09-01T01:44:51.962Z,65.10
2018-09-01T01:45:51.883Z,66.33
2018-09-01T01:46:51.807Z,66.43
2018-09-01T01:47:51.730Z,66.62
2018-09-01T01:48:51.653Z,66.05
2018-09-01T01:49:51.578Z,66.72
2018-09-01T01:50:51.499Z,67.00
2018-09-01T01:51:51.421Z,66.43
2018-09-01T01:52:51.346Z,65.67
2018-09-01T01:53:51.268Z,65.29
2018-09-01T01:54:51.192Z,65.19
2018-09-01T01:55:51.114Z,64.81
2018-09-01T01:56:51.038Z,65.10
2018-09-01T01:57:50.966Z,64.34
2018-09-01T01:58:50.885Z,64.40
2018-09-01T01:59:50.807Z,63.10
2018-09-01T02:00:50.730Z,62.91
2018-09-01T02:01:50.657Z,63.26
2018-09-01T02:02:50.577Z,63.96
2018-09-01T02:03:50.499Z,62.81
2018-09-01T02:04:50.424Z,61.77
2018-09-01T02:05:50.347Z,62.05
2018-09-01T02:06:50.269Z,62.81
2018-09-01T02:07:50.192Z,62.62
2018-09-01T02:08:50.114Z,62.05
2018-09-01T02:09:50.039Z,61.58
2018-09-01T02:10:49.961Z,61.77
2018-09-01T02:11:49.883Z,61.67
2018-09-01T02:12:49.806Z,61.96
2018-09-01T02:13:49.731Z,62.15
2018-09-01T02:14:49.656Z,61.86
2018-09-01T02:15:49.576Z,61.48
2018-09-01T02:16:49.497Z,62.62
2018-09-01T02:17:49.422Z,61.96
2018-09-01T02:18:49.345Z,60.72
2018-09-01T02:19:49.267Z,60.15
2018-09-01T02:20:49.191Z,60.24
2018-09-01T02:21:49.113Z,60.05
2018-09-01T02:22:49.039Z,61.10
2018-09-01T02:23:48.960Z,61.29
2018-09-01T02:24:48.883Z,60.15
2018-09-01T02:25:48.808Z,59.67
2018-09-01T02:26:48.729Z,59.39
2018-09-01T02:27:48.653Z,59.20
2018-09-01T02:28:48.575Z,60.15
2018-09-01T02:29:48.498Z,60.72
2018-09-01T02:30:48.422Z,60.53
2018-09-01T02:31:48.345Z,60.15
2018-09-01T02:32:48.268Z,61.00
2018-09-01T02:33:48.190Z,61.67
2018-09-01T02:34:48.113Z,60.91
2018-09-01T02:35:48.036Z,61.77
2018-09-01T02:36:47.960Z,62.15
2018-09-01T02:37:47.882Z,62.78
2018-09-01T02:38:47.805Z,62.59
2018-09-01T02:39:47.728Z,61.83
2018-09-01T02:40:47.651Z,61.67
2018-09-01T02:41:47.574Z,61.10
2018-09-01T02:42:47.499Z,61.19
2018-09-01T02:43:47.425Z,60.21
2018-09-01T02:44:47.343Z,60.31
2018-09-01T02:45:47.266Z,59.39
2018-09-01T02:46:47.189Z,59.64
2018-09-01T02:47:47.115Z,59.58
2018-09-01T02:48:47.036Z,58.69
2018-09-01T02:49:46.959Z,59.10
2018-09-01T02:50:46.883Z,58.91
2018-09-01T02:51:46.803Z,58.72
2018-09-01T02:52:46.732Z,59.86
2018-09-01T02:53:46.649Z,59.77
2018-09-01T02:54:46.572Z,60.05
2018-09-01T02:55:46.495Z,60.24
2018-09-01T02:56:46.419Z,59.96
2018-09-01T02:57:46.342Z,60.34
2018-09-01T02:58:46.265Z,59.77
2018-09-01T02:59:46.186Z,61.00
2018-09-01T03:00:46.111Z,60.72
2018-09-01T03:01:46.033Z,60.34
2018-09-01T03:02:45.956Z,60.82
2018-09-01T03:03:45.880Z,60.72
2018-09-01T03:04:45.805Z,60.31
2018-09-01T03:05:45.727Z,59.86
2018-09-01T03:06:45.649Z,59.01
2018-09-01T03:07:45.572Z,59.96
2018-09-01T03:08:45.494Z,60.21
2018-09-01T03:09:45.418Z,60.21
2018-09-01T03:10:45.342Z,60.12
2018-09-01T03:11:45.267Z,59.74
2018-09-01T03:12:45.187Z,59.20
2018-09-01T03:13:45.109Z,59.27
2018-09-01T03:14:45.033Z,59.55
2018-09-01T03:15:44.955Z,59.17
2018-09-01T03:16:44.879Z,61.00
2018-09-01T03:17:44.801Z,61.26
2018-09-01T03:18:44.725Z,61.10
2018-09-01T03:19:44.647Z,60.88
2018-09-01T03:20:44.570Z,60.21
2018-09-01T03:21:44.493Z,60.12
2018-09-01T03:22:44.415Z,60.12
2018-09-01T03:23:44.339Z,60.02
2018-09-01T03:24:44.263Z,59.93
2018-09-01T03:25:44.190Z,60.50
2018-09-01T03:26:44.108Z,60.02
2018-09-01T03:27:44.031Z,60.41
2018-09-01T03:28:43.954Z,59.45
2018-09-01T03:29:43.877Z,58.98
2018-09-01T03:30:43.800Z,58.59
2018-09-01T03:31:43.723Z,58.79
2018-09-01T03:32:43.645Z,58.98
2018-09-01T03:33:43.568Z,59.64
2018-09-01T03:34:43.491Z,59.64
2018-09-01T03:35:43.413Z,59.93
2018-09-01T03:36:43.336Z,60.21
2018-09-01T03:37:43.259Z,60.02
2018-09-01T03:38:43.183Z,59.93
2018-09-01T03:39:43.103Z,60.12
2018-09-01T03:40:43.030Z,59.07
2018-09-01T03:41:42.952Z,59.74
2018-09-01T03:42:42.874Z,59.17
2018-09-01T03:43:42.797Z,60.31
2018-09-01T03:44:42.721Z,60.97
2018-09-01T03:45:42.647Z,60.41
2018-09-01T03:46:42.572Z,59.83
2018-09-01T03:47:42.488Z,60.12
2018-09-01T03:48:42.409Z,58.98
2018-09-01T03:49:42.333Z,58.88
2018-09-01T03:50:42.258Z,58.79
2018-09-01T03:51:42.179Z,59.74
2018-09-01T03:52:42.100Z,59.74
2018-09-01T03:53:42.024Z,59.27
2018-09-01T03:54:41.948Z,58.12
2018-09-01T03:55:41.869Z,58.76
2018-09-01T03:56:41.792Z,58.95
2018-09-01T03:57:41.715Z,58.85
2018-09-01T03:58:41.638Z,60.09
2018-09-01T03:59:41.560Z,59.42
2018-09-01T04:00:41.482Z,58.76
2018-09-01T04:01:41.408Z,58.76
2018-09-01T04:02:41.328Z,59.05
2018-09-01T04:03:41.249Z,59.05
2018-09-01T04:04:41.173Z,59.90
2018-09-01T04:05:41.096Z,60.28
2018-09-01T04:06:41.019Z,59.71
2018-09-01T04:07:40.940Z,60.75
2018-09-01T04:08:40.862Z,60.66
2018-09-01T04:09:40.787Z,60.47
2018-09-01T04:10:40.709Z,60.18
2018-09-01T04:11:40.630Z,59.71
2018-09-01T04:12:40.553Z,61.42
2018-09-01T04:13:40.474Z,62.18
2018-09-01T04:14:40.401Z,61.52
2018-09-01T04:15:40.318Z,60.28
2018-09-01T04:16:40.244Z,59.99
2018-09-01T04:17:40.168Z,60.57
2018-09-01T04:18:40.088Z,59.90
2018-09-01T04:19:40.008Z,59.14
2018-09-01T04:20:39.931Z,59.90
2018-09-01T04:21:39.853Z,58.57
2018-09-01T04:22:39.775Z,59.52
2018-09-01T04:23:39.698Z,58.66
2018-09-01T04:24:39.620Z,59.14
2018-09-01T04:25:39.543Z,58.95
2018-09-01T04:26:39.464Z,58.18
2018-09-01T04:27:39.386Z,58.37
2018-09-01T04:28:39.309Z,58.00
2018-09-01T04:29:39.232Z,57.62
2018-09-01T04:30:39.153Z,58.85
2018-09-01T04:31:39.075Z,58.66
2018-09-01T04:32:38.997Z,58.18
2018-09-01T04:33:38.922Z,58.85
2018-09-01T04:34:38.842Z,58.95
2018-09-01T04:35:38.819Z,58.47
2018-09-01T04:36:38.687Z,58.66
2018-09-01T04:37:38.609Z,58.85
2018-09-01T04:38:38.532Z,60.94
2018-09-01T04:39:38.454Z,63.04
2018-09-01T04:40:38.375Z,63.51
2018-09-01T04:41:38.297Z,62.37
2018-09-01T04:42:38.220Z,60.66
2018-09-01T04:43:38.141Z,60.75
2018-09-01T04:44:38.064Z,60.09
2018-09-01T04:45:37.993Z,60.38
2018-09-01T04:46:37.909Z,59.99
2018-09-01T04:47:37.831Z,60.66
2018-09-01T04:48:37.753Z,59.52
2018-09-01T04:49:37.676Z,58.47
2018-09-01T04:50:37.847Z,58.47
2018-09-01T04:51:37.520Z,58.09
2018-09-01T04:52:37.441Z,58.37
2018-09-01T04:53:37.364Z,58.47
2018-09-01T04:54:37.286Z,57.81
2018-09-01T04:55:37.207Z,57.62
2018-09-01T04:56:37.131Z,57.71
2018-09-01T04:57:37.053Z,58.00
2018-09-01T04:58:36.976Z,58.18
2018-09-01T04:59:36.897Z,58.57
2018-09-01T05:00:36.822Z,58.66
2018-09-01T05:01:36.740Z,58.95
2018-09-01T05:02:36.664Z,59.05
2018-09-01T05:03:36.585Z,58.95
2018-09-01T05:04:36.507Z,58.47
2018-09-01T05:05:36.429Z,58.09
2018-09-01T05:06:36.352Z,58.00
2018-09-01T05:07:36.275Z,57.62
2018-09-01T05:08:36.196Z,57.62
2018-09-01T05:09:36.120Z,56.95
2018-09-01T05:10:36.042Z,56.10
2018-09-01T05:11:35.963Z,56.38
2018-09-01T05:12:35.888Z,56.19
2018-09-01T05:13:35.811Z,56.76
2018-09-01T05:14:35.730Z,57.14
2018-09-01T05:15:35.652Z,57.33
2018-09-01T05:16:35.574Z,56.10
2018-09-01T05:17:35.500Z,56.29
2018-09-01T05:18:35.419Z,56.38
2018-09-01T05:19:35.341Z,56.57
2018-09-01T05:20:35.263Z,56.79
2018-09-01T05:21:35.186Z,57.55
2018-09-01T05:22:35.108Z,57.65
2018-09-01T05:23:35.030Z,58.31
2018-09-01T05:24:34.953Z,58.22
2018-09-01T05:25:34.875Z,58.31
2018-09-01T05:26:34.802Z,58.88
2018-09-01T05:27:34.719Z,58.98
2018-09-01T05:28:34.643Z,58.12
2018-09-01T05:29:34.565Z,57.65
2018-09-01T05:30:34.487Z,57.74
2018-09-01T05:31:34.409Z,57.84
2018-09-01T05:32:34.332Z,57.17
2018-09-01T05:33:34.254Z,57.17
2018-09-01T05:34:34.177Z,56.88
2018-09-01T05:35:34.102Z,57.07
2018-09-01T05:36:34.109Z,56.88
2018-09-01T05:37:33.947Z,56.79
2018-09-01T05:38:33.868Z,56.98
2018-09-01T05:39:33.788Z,57.17
2018-09-01T05:40:33.715Z,56.88
2018-09-01T05:41:33.634Z,56.98
2018-09-01T05:42:33.557Z,57.36
2018-09-01T05:43:33.523Z,57.84
2018-09-01T05:44:33.403Z,56.70
2018-09-01T05:45:33.325Z,56.98
2018-09-01T05:46:33.250Z,57.07
2018-09-01T05:47:33.172Z,57.67
2018-09-01T05:48:33.093Z,58.15
2018-09-01T05:49:33.019Z,58.06
2018-09-01T05:50:32.940Z,57.58
2018-09-01T05:51:32.862Z,57.58
2018-09-01T05:52:32.787Z,57.58
2018-09-01T05:53:32.711Z,57.67
2018-09-01T05:54:32.632Z,57.10
2018-09-01T05:55:32.554Z,57.96
2018-09-01T05:56:32.477Z,57.58
2018-09-01T05:57:32.400Z,58.25
2018-09-01T05:58:32.324Z,58.53
2018-09-01T05:59:32.246Z,59.10
2018-09-01T06:00:32.183Z,58.91
2018-09-01T06:01:32.095Z,58.91
2018-09-01T06:02:32.016Z,58.34
2018-09-01T06:03:31.939Z,58.44
2018-09-01T06:04:31.863Z,58.06
2018-09-01T06:05:31.787Z,58.18
2018-09-01T06:06:31.711Z,58.37
2018-09-01T06:07:31.632Z,58.47
2018-09-01T06:08:31.556Z,58.37
2018-09-01T06:09:31.480Z,58.08
2018-09-01T06:10:31.403Z,58.84
2018-09-01T06:11:31.326Z,60.66
2018-09-01T06:12:31.251Z,59.13
2018-09-01T06:13:31.175Z,58.47
2018-09-01T06:14:31.098Z,58.94
2018-09-01T06:15:31.021Z,57.99
2018-09-01T06:16:30.944Z,58.47
2018-09-01T06:17:30.892Z,59.13
2018-09-01T06:18:30.793Z,59.32
2018-09-01T06:19:30.718Z,61.51
2018-09-01T06:20:30.638Z,62.46
2018-09-01T06:21:30.564Z,62.08
2018-09-01T06:22:30.486Z,61.99
2018-09-01T06:23:30.410Z,61.61
2018-09-01T06:24:30.333Z,62.56
2018-09-01T06:25:30.256Z,62.94
2018-09-01T06:26:30.184Z,63.54
2018-09-01T06:27:30.105Z,63.17
2018-09-01T06:28:30.029Z,62.78
2018-09-01T06:29:29.957Z,63.64
2018-09-01T06:30:29.905Z,64.87
2018-09-01T06:31:29.801Z,66.31
2018-09-01T06:32:29.725Z,67.07
2018-09-01T06:33:29.649Z,67.55
2018-09-01T06:34:29.576Z,70.40
2018-09-01T06:35:29.498Z,69.26
2018-09-01T06:36:29.423Z,72.34
2018-09-01T06:37:29.392Z,81.17
2018-09-01T06:38:29.271Z,84.64
2018-09-01T06:39:29.195Z,87.12
2018-09-01T06:40:29.119Z,88.26
2018-09-01T06:41:29.044Z,91.22
2018-09-01T06:42:28.971Z,87.98
2018-09-01T06:43:28.894Z,75.96
2018-09-01T06:44:28.819Z,76.64
2018-09-01T06:45:28.741Z,77.69
2018-09-01T06:46:28.668Z,76.92
2018-09-01T06:47:28.594Z,78.83
2018-09-01T06:48:28.515Z,80.20
2018-09-01T06:49:28.442Z,77.53
2018-09-01T06:50:28.364Z,86.02
2018-09-01T06:51:28.293Z,87.74
2018-09-01T06:52:28.214Z,88.78
2018-09-01T06:53:28.139Z,94.98
2018-09-01T06:54:28.064Z,94.79
2018-09-01T06:55:27.990Z,95.08
2018-09-01T06:56:27.913Z,96.32
2018-09-01T06:57:27.839Z,96.22
2018-09-01T06:58:27.765Z,92.12
2018-09-01T06:59:27.689Z,99.27
2018-09-01T07:00:27.612Z,94.70
2018-09-01T07:01:27.538Z,95.17
2018-09-01T07:02:27.465Z,92.60
2018-09-01T07:03:27.390Z,96.56
2018-09-01T07:04:27.316Z,94.74
2018-09-01T07:05:27.240Z,97.51
2018-09-01T07:06:27.165Z,97.80
2018-09-01T07:07:27.088Z,98.85
2018-09-01T07:08:27.015Z,95.98
2018-09-01T07:09:26.941Z,93.79
2018-09-01T07:10:26.865Z,98.56
2018-09-01T07:11:26.790Z,95.41
2018-09-01T07:12:26.715Z,99.99
2018-09-01T07:13:26.642Z,96.56
2018-09-01T07:14:26.567Z,99.13
2018-09-01T07:15:26.491Z,99.99
2018-09-01T07:16:26.417Z,99.99
2018-09-01T07:17:26.342Z,99.85
2018-09-01T07:18:26.268Z,99.76
2018-09-01T07:19:26.192Z,99.99
2018-09-01T07:20:26.117Z,98.66
2018-09-01T07:21:26.044Z,99.18
2018-09-01T07:22:25.970Z,94.22
2018-09-01T07:23:25.895Z,98.90
2018-09-01T07:24:25.824Z,99.99
2018-09-01T07:25:25.744Z,99.37
2018-09-01T07:26:25.671Z,95.56
2018-09-01T07:27:25.602Z,98.71
2018-09-01T07:28:25.521Z,99.57
2018-09-01T07:29:25.447Z,98.80
2018-09-01T07:30:25.561Z,99.18
2018-09-01T07:31:25.845Z,98.32
2018-09-01T07:32:25.225Z,99.99
2018-09-01T07:33:25.151Z,97.94
2018-09-01T07:34:25.080Z,99.99
2018-09-01T07:35:25.001Z,98.03
2018-09-01T07:36:24.927Z,99.57
2018-09-01T07:37:24.853Z,99.99
2018-09-01T07:38:24.777Z,99.37
2018-09-01T07:39:24.703Z,99.99
2018-09-01T07:40:24.628Z,97.18
2018-09-01T07:41:24.557Z,99.99
2018-09-01T07:42:24.480Z,99.43
2018-09-01T07:43:24.405Z,99.99
2018-09-01T07:44:24.336Z,99.99
2018-09-01T07:45:24.256Z,99.99
2018-09-01T07:46:24.184Z,99.99
2018-09-01T07:47:24.110Z,99.99
2018-09-01T07:48:24.034Z,99.66
2018-09-01T07:49:23.959Z,98.61
2018-09-01T07:50:23.891Z,99.99
2018-09-01T07:51:23.811Z,99.99
2018-09-01T07:52:23.735Z,99.85
2018-09-01T07:53:23.662Z,99.99
2018-09-01T07:54:23.587Z,99.08
2018-09-01T07:55:23.512Z,99.33
2018-09-01T07:56:23.500Z,99.99
2018-09-01T07:57:23.363Z,99.99
2018-09-01T07:58:23.289Z,99.99
2018-09-01T07:59:23.216Z,99.99
2018-09-01T08:00:23.146Z,99.99
2018-09-01T08:01:23.068Z,98.42
2018-09-01T08:02:22.993Z,99.99
2018-09-01T08:03:22.919Z,99.99
2018-09-01T08:04:22.845Z,99.99
2018-09-01T08:05:22.770Z,99.99
2018-09-01T08:06:22.697Z,99.99
2018-09-01T08:07:22.663Z,99.99
2018-09-01T08:08:22.546Z,99.99
2018-09-01T08:09:22.475Z,99.99
2018-09-01T08:10:22.400Z,99.99
2018-09-01T08:11:22.326Z,99.76
2018-09-01T08:12:22.252Z,99.99
2018-09-01T08:13:22.178Z,99.99
2018-09-01T08:14:22.265Z,99.99
2018-09-01T08:15:22.034Z,99.99
2018-09-01T08:16:21.955Z,99.99
2018-09-01T08:17:21.886Z,99.99
2018-09-01T08:18:21.810Z,99.99
2018-09-01T08:19:21.735Z,99.99
2018-09-01T08:20:21.662Z,99.99
2018-09-01T08:21:21.587Z,99.99
2018-09-01T08:22:21.513Z,99.99
2018-09-01T08:23:21.440Z,99.99
2018-09-01T08:24:21.367Z,99.99
2018-09-01T08:25:21.293Z,99.99
2018-09-01T08:26:21.219Z,99.99
2018-09-01T08:27:21.145Z,99.99
2018-09-01T08:28:21.072Z,99.99
2018-09-01T08:29:20.998Z,99.99
2018-09-01T08:30:20.924Z,99.99
2018-09-01T08:31:20.851Z,99.99
2018-09-01T08:32:20.779Z,99.99
2018-09-01T08:33:20.705Z,99.99
2018-09-01T08:34:20.633Z,99.99
2018-09-01T08:35:20.557Z,99.99
2018-09-01T08:36:20.485Z,99.99
2018-09-01T08:37:20.410Z,99.99
2018-09-01T08:38:20.339Z,99.99
2018-09-01T08:39:20.263Z,99.99
2018-09-01T08:40:20.199Z,99.99
2018-09-01T08:41:20.117Z,99.99
2018-09-01T08:42:20.045Z,99.99
2018-09-01T08:43:19.971Z,99.99
2018-09-01T08:44:19.898Z,99.99
2018-09-01T08:45:19.856Z,99.99
2018-09-01T08:46:19.751Z,99.99
2018-09-01T08:47:19.678Z,99.99
2018-09-01T08:48:19.606Z,99.99
2018-09-01T08:49:19.534Z,99.99
2018-09-01T08:50:19.460Z,99.99
2018-09-01T08:51:19.388Z,99.99
2018-09-01T08:52:19.313Z,99.99
2018-09-01T08:53:19.241Z,99.99
2018-09-01T08:54:19.167Z,99.99
2018-09-01T08:55:19.096Z,99.99
2018-09-01T08:56:19.022Z,99.99
2018-09-01T08:57:18.948Z,99.91
2018-09-01T08:58:18.876Z,99.99
2018-09-01T08:59:18.803Z,99.96
2018-09-01T09:00:18.730Z,99.29
2018-09-01T09:01:18.658Z,98.81
2018-09-01T09:02:18.585Z,98.05
2018-09-01T09:03:18.510Z,98.14
2018-09-01T09:04:18.437Z,99.39
2018-09-01T09:05:18.366Z,98.43
2018-09-01T09:06:18.292Z,98.10
2018-09-01T09:07:18.221Z,97.09
2018-09-01T09:08:18.149Z,95.51
2018-09-01T09:09:18.075Z,95.84
2018-09-01T09:10:18.003Z,96.27
2018-09-01T09:11:17.929Z,93.78
2018-09-01T09:12:17.857Z,93.30
2018-09-01T09:13:17.788Z,93.30
2018-09-01T09:14:17.713Z,93.97
2018-09-01T09:15:17.641Z,94.26
2018-09-01T09:16:17.566Z,91.57
2018-09-01T09:17:17.499Z,90.37
2018-09-01T09:18:17.422Z,89.70
2018-09-01T09:19:17.349Z,87.74
2018-09-01T09:20:17.276Z,89.94
2018-09-01T09:21:17.206Z,90.04
2018-09-01T09:22:17.132Z,91.67
2018-09-01T09:23:17.058Z,88.12
2018-09-01T09:24:16.985Z,89.32
2018-09-01T09:25:16.914Z,88.35
2018-09-01T09:26:16.843Z,87.78
2018-09-01T09:27:16.769Z,85.86
2018-09-01T09:28:16.697Z,83.65
2018-09-01T09:29:16.624Z,83.37
2018-09-01T09:30:16.553Z,81.10
2018-09-01T09:31:16.480Z,82.74
2018-09-01T09:32:16.407Z,81.87
2018-09-01T09:33:16.334Z,81.07
2018-09-01T09:34:16.263Z,79.63
2018-09-01T09:35:16.191Z,81.78
2018-09-01T09:36:16.119Z,82.16
2018-09-01T09:37:16.048Z,82.16
2018-09-01T09:38:15.976Z,81.40
2018-09-01T09:39:15.902Z,80.43
2018-09-01T09:40:15.830Z,80.43
2018-09-01T09:41:15.759Z,81.59
2018-09-01T09:42:15.687Z,80.34
2018-09-01T09:43:15.615Z,76.79
2018-09-01T09:44:15.545Z,78.70
2018-09-01T09:45:15.470Z,81.20
2018-09-01T09:46:15.399Z,77.56
2018-09-01T09:47:15.329Z,78.99
2018-09-01T09:48:15.255Z,76.88
2018-09-01T09:49:15.183Z,76.50
2018-09-01T09:50:15.112Z,76.98
2018-09-01T09:51:15.242Z,75.73
2018-09-01T09:52:14.969Z,75.92
2018-09-01T09:53:14.895Z,79.47
2018-09-01T09:54:14.824Z,78.99
2018-09-01T09:55:14.751Z,83.03
2018-09-01T09:56:14.679Z,79.96
2018-09-01T09:57:14.609Z,76.69
2018-09-01T09:58:14.566Z,74.77
2018-09-01T09:59:14.464Z,75.54
2018-09-01T10:00:14.397Z,76.50
2018-09-01T10:01:14.321Z,78.32
2018-09-01T10:02:14.252Z,78.96
2018-09-01T10:03:14.177Z,79.91
2018-09-01T10:04:14.104Z,81.54
2018-09-01T10:05:14.038Z,82.26
2018-09-01T10:06:13.963Z,75.45
2018-09-01T10:07:13.888Z,75.73
2018-09-01T10:08:13.817Z,73.24
2018-09-01T10:09:13.746Z,71.51
2018-09-01T10:10:13.674Z,71.93
2018-09-01T10:11:13.603Z,70.78
2018-09-01T10:12:13.531Z,71.06
2018-09-01T10:13:13.486Z,69.18
2018-09-01T10:14:13.389Z,68.41
2018-09-01T10:15:13.341Z,66.20
2018-09-01T10:16:13.242Z,65.23
2018-09-01T10:17:13.175Z,64.89
2018-09-01T10:18:13.100Z,64.28
2018-09-01T10:19:13.029Z,65.91
2018-09-01T10:20:13.009Z,66.00
2018-09-01T10:21:12.885Z,64.89
2018-09-01T10:22:12.814Z,64.79
2018-09-01T10:23:12.743Z,64.40
2018-09-01T10:24:12.671Z,65.46
2018-09-01T10:25:12.600Z,62.77
2018-09-01T10:26:12.530Z,62.10
2018-09-01T10:27:12.630Z,61.14
2018-09-01T10:28:12.387Z,63.35
2018-09-01T10:29:12.316Z,65.08
2018-09-01T10:30:12.246Z,63.64
2018-09-01T10:31:12.173Z,63.92
2018-09-01T10:32:12.102Z,65.08
2018-09-01T10:33:12.056Z,62.96
2018-09-01T10:34:11.962Z,63.25
2018-09-01T10:35:11.893Z,62.87
2018-09-01T10:36:11.821Z,63.64
2018-09-01T10:37:11.748Z,64.22
2018-09-01T10:38:11.676Z,63.06
2018-09-01T10:39:11.605Z,62.48
2018-09-01T10:40:11.534Z,62.38
2018-09-01T10:41:11.464Z,62.77
2018-09-01T10:42:11.404Z,63.64
2018-09-01T10:43:11.322Z,63.73
2018-09-01T10:44:11.250Z,65.37
2018-09-01T10:45:11.180Z,63.64
2018-09-01T10:46:11.110Z,61.14
2018-09-01T10:47:11.039Z,60.85
2018-09-01T10:48:10.972Z,59.31
2018-09-01T10:49:10.897Z,59.99
2018-09-01T10:50:10.827Z,59.69
2018-09-01T10:51:10.756Z,59.41
2018-09-01T10:52:10.687Z,60.27
2018-09-01T10:53:10.617Z,60.94
2018-09-01T10:54:10.543Z,59.89
2018-09-01T10:55:10.474Z,59.60
2018-09-01T10:56:10.402Z,58.64
2018-09-01T10:57:10.332Z,58.45
2018-09-01T10:58:10.261Z,58.73
2018-09-01T10:59:10.392Z,59.31
2018-09-01T11:00:10.121Z,60.17
2018-09-01T11:01:10.049Z,59.60
2018-09-01T11:02:09.978Z,59.79
2018-09-01T11:03:09.910Z,61.61
2018-09-01T11:04:09.837Z,62.00
2018-09-01T11:05:09.826Z,62.68
2018-09-01T11:06:09.695Z,59.89
2018-09-01T11:07:09.624Z,61.43
2018-09-01T11:08:09.554Z,61.04
2018-09-01T11:09:09.484Z,60.66
2018-09-01T11:10:09.413Z,60.17
2018-09-01T11:11:09.343Z,60.85
2018-09-01T11:12:09.272Z,57.90
2018-09-01T11:13:09.202Z,57.25
2018-09-01T11:14:09.131Z,57.06
2018-09-01T11:15:09.059Z,55.35
2018-09-01T11:16:08.990Z,57.60
2018-09-01T11:17:08.920Z,58.17
2018-09-01T11:18:08.850Z,55.57
2018-09-01T11:19:08.782Z,56.92
2018-09-01T11:20:08.720Z,56.12
2018-09-01T11:21:08.639Z,55.83
2018-09-01T11:22:08.570Z,57.06
2018-09-01T11:23:08.498Z,55.90
2018-09-01T11:24:08.431Z,54.75
2018-09-01T11:25:08.360Z,53.21
2018-09-01T11:26:08.292Z,52.73
2018-09-01T11:27:08.220Z,53.19
2018-09-01T11:28:08.261Z,54.63
2018-09-01T11:29:08.085Z,54.53
2018-09-01T11:30:08.012Z,54.24
2018-09-01T11:31:07.951Z,52.87
2018-09-01T11:32:07.872Z,53.28
2018-09-01T11:33:07.802Z,53.96
2018-09-01T11:34:07.743Z,52.20
2018-09-01T11:35:07.661Z,52.16
2018-09-01T11:36:07.655Z,49.51
2018-09-01T11:37:07.523Z,45.84
2018-09-01T11:38:07.454Z,45.38
2018-09-01T11:39:07.384Z,45.75
2018-09-01T11:40:07.322Z,44.20
2018-09-01T11:41:07.246Z,44.51
2018-09-01T11:42:07.182Z,44.59
2018-09-01T11:43:07.274Z,47.07
2018-09-01T11:44:07.040Z,47.05
2018-09-01T11:45:06.972Z,46.33
2018-09-01T11:46:06.904Z,44.05
2018-09-01T11:47:06.834Z,43.15
2018-09-01T11:48:06.778Z,42.71
2018-09-01T11:49:06.701Z,41.72
2018-09-01T11:50:06.633Z,41.17
2018-09-01T11:51:06.565Z,42.87
2018-09-01T11:52:06.504Z,43.70
2018-09-01T11:53:06.489Z,45.03
2018-09-01T11:54:06.383Z,46.15
2018-09-01T11:55:06.301Z,45.96
2018-09-01T11:56:06.234Z,45.16
2018-09-01T11:57:06.167Z,43.00
2018-09-01T11:58:06.101Z,41.05
2018-09-01T11:59:06.035Z,38.96
2018-09-01T12:00:05.973Z,40.69
2018-09-01T12:01:05.910Z,40.94
2018-09-01T12:02:05.855Z,42.43
2018-09-01T12:03:05.777Z,43.57
2018-09-01T12:04:05.712Z,43.62
2018-09-01T12:05:05.647Z,44.95
2018-09-01T12:06:05.584Z,48.44
2018-09-01T12:07:05.517Z,47.67
2018-09-01T12:08:05.453Z,46.37
2018-09-01T12:09:05.510Z,47.41
2018-09-01T12:10:05.324Z,46.90
2018-09-01T12:11:05.258Z,43.09
2018-09-01T12:12:05.194Z,40.86
2018-09-01T12:13:05.133Z,40.19
2018-09-01T12:14:05.066Z,40.26
2018-09-01T12:15:05.007Z,40.19
2018-09-01T12:16:04.936Z,40.61
2018-09-01T12:17:04.873Z,39.49
2018-09-01T12:18:04.811Z,38.93
2018-09-01T12:19:04.747Z,39.03
2018-09-01T12:20:04.684Z,38.83
2018-09-01T12:21:04.625Z,37.86
2018-09-01T12:22:04.586Z,37.08
2018-09-01T12:23:04.498Z,37.66
2018-09-01T12:24:04.437Z,37.34
2018-09-01T12:25:04.375Z,38.21
2018-09-01T12:26:04.315Z,38.70
2018-09-01T12:27:04.253Z,39.01
2018-09-01T12:28:04.207Z,38.32
2018-09-01T12:29:04.134Z,38.23
2018-09-01T12:30:04.073Z,37.55
2018-09-01T12:31:04.011Z,38.02
2018-09-01T12:32:03.953Z,38.52
2018-09-01T12:33:03.892Z,37.28
2018-09-01T12:34:03.833Z,38.23
2018-09-01T12:35:03.773Z,38.25
2018-09-01T12:36:03.719Z,36.29
2018-09-01T12:37:03.654Z,37.18
2018-09-01T12:38:03.592Z,38.12
2018-09-01T12:39:03.533Z,38.21
2018-09-01T12:40:03.472Z,36.54
2018-09-01T12:41:03.413Z,37.11
2018-09-01T12:42:03.436Z,39.01
2018-09-01T12:43:03.294Z,37.78
2018-09-01T12:44:03.233Z,36.32
2018-09-01T12:45:03.174Z,37.42
2018-09-01T12:46:03.114Z,40.11
2018-09-01T12:47:03.053Z,40.38
2018-09-01T12:48:02.992Z,41.42
2018-09-01T12:49:02.932Z,41.09
2018-09-01T12:50:02.872Z,40.46
2018-09-01T12:51:02.808Z,39.51
2018-09-01T12:52:02.746Z,39.43